sensor_id;sensor_type;location;lat;lon;timestamp;P1;P2;P0
73517;PMS5003;61766;60.318;25.044;2023-05-20T00:01:54;5;5;
73517;PMS5003;61766;60.318;25.044;2023-05-20T00:04:19;5;5;
73517;PMS5003;61766;60.318;25.044;2023-05-20T00:06:45;6;6;
73517;PMS5003;61766;60.318;25.044;2023-05-20T00:09:10;5;5;
73517;PMS5003;61766;60.318;25.044;2023-05-20T00:11:35;6;5;
73517;PMS5003;61766;60.318;25.044;2023-05-20T00:14:00;6;6;
73517;PMS5003;61766;60.318;25.044;2023-05-20T00:16:25;6;6;
73517;PMS5003;61766;60.318;25.044;2023-05-20T00:18:50;6;6;
73517;PMS5003;61766;60.318;25.044;2023-05-20T00:21:15;5;5;
73517;PMS5003;61766;60.318;25.044;2023-05-20T00:23:40;7;7;
73517;PMS5003;61766;60.318;25.044;2023-05-20T00:26:06;4;4;
73517;PMS5003;61766;60.318;25.044;2023-05-20T00:28:31;5;4;
73517;PMS5003;61766;60.318;25.044;2023-05-20T00:30:56;6;6;
73517;PMS5003;61766;60.318;25.044;2023-05-20T00:33:22;6;6;
73517;PMS5003;61766;60.318;25.044;2023-05-20T00:35:47;6;5;
73517;PMS5003;61766;60.318;25.044;2023-05-20T00:38:12;6;6;
73517;PMS5003;61766;60.318;25.044;2023-05-20T00:40:37;5;5;
73517;PMS5003;61766;60.318;25.044;2023-05-20T00:43:02;5;5;
73517;PMS5003;61766;60.318;25.044;2023-05-20T00:45:28;6;5;
73517;PMS5003;61766;60.318;25.044;2023-05-20T00:47:53;5;5;
73517;PMS5003;61766;60.318;25.044;2023-05-20T00:50:18;5;5;
73517;PMS5003;61766;60.318;25.044;2023-05-20T00:52:43;5;5;
73517;PMS5003;61766;60.318;25.044;2023-05-20T00:55:08;6;6;
73517;PMS5003;61766;60.318;25.044;2023-05-20T00:57:33;4;4;
73517;PMS5003;61766;60.318;25.044;2023-05-20T00:59:58;4;4;
73517;PMS5003;61766;60.318;25.044;2023-05-20T01:02:23;6;6;
73517;PMS5003;61766;60.318;25.044;2023-05-20T01:04:48;4;4;
73517;PMS5003;61766;60.318;25.044;2023-05-20T01:07:14;5;5;
73517;PMS5003;61766;60.318;25.044;2023-05-20T01:09:39;3;3;
73517;PMS5003;61766;60.318;25.044;2023-05-20T01:12:05;5;5;
73517;PMS5003;61766;60.318;25.044;2023-05-20T01:14:30;7;6;
73517;PMS5003;61766;60.318;25.044;2023-05-20T01:16:54;5;5;
73517;PMS5003;61766;60.318;25.044;2023-05-20T01:19:20;6;6;
73517;PMS5003;61766;60.318;25.044;2023-05-20T01:21:44;4;4;
73517;PMS5003;61766;60.318;25.044;2023-05-20T01:24:09;7;6;
73517;PMS5003;61766;60.318;25.044;2023-05-20T01:26:34;5;5;
73517;PMS5003;61766;60.318;25.044;2023-05-20T01:29:00;5;5;
73517;PMS5003;61766;60.318;25.044;2023-05-20T01:31:25;4;4;
73517;PMS5003;61766;60.318;25.044;2023-05-20T01:33:51;4;4;
73517;PMS5003;61766;60.318;25.044;2023-05-20T01:36:15;4;4;
73517;PMS5003;61766;60.318;25.044;2023-05-20T01:38:40;3;3;
73517;PMS5003;61766;60.318;25.044;2023-05-20T01:41:05;4;4;
73517;PMS5003;61766;60.318;25.044;2023-05-20T01:43:30;4;4;
73517;PMS5003;61766;60.318;25.044;2023-05-20T01:45:55;5;4;
73517;PMS5003;61766;60.318;25.044;2023-05-20T01:48:21;5;5;
73517;PMS5003;61766;60.318;25.044;2023-05-20T01:50:46;5;5;
73517;PMS5003;61766;60.318;25.044;2023-05-20T01:53:11;5;4;
73517;PMS5003;61766;60.318;25.044;2023-05-20T01:55:36;5;5;
73517;PMS5003;61766;60.318;25.044;2023-05-20T01:58:01;6;5;
73517;PMS5003;61766;60.318;25.044;2023-05-20T02:00:26;5;5;
73517;PMS5003;61766;60.318;25.044;2023-05-20T02:02:52;6;5;
73517;PMS5003;61766;60.318;25.044;2023-05-20T02:05:17;4;4;
73517;PMS5003;61766;60.318;25.044;2023-05-20T02:07:42;5;4;
73517;PMS5003;61766;60.318;25.044;2023-05-20T02:10:08;5;4;
73517;PMS5003;61766;60.318;25.044;2023-05-20T02:12:32;5;5;
73517;PMS5003;61766;60.318;25.044;2023-05-20T02:14:57;4;4;
73517;PMS5003;61766;60.318;25.044;2023-05-20T02:17:23;3;3;
73517;PMS5003;61766;60.318;25.044;2023-05-20T02:19:48;5;5;
73517;PMS5003;61766;60.318;25.044;2023-05-20T02:22:13;4;4;
73517;PMS5003;61766;60.318;25.044;2023-05-20T02:24:38;3;3;
73517;PMS5003;61766;60.318;25.044;2023-05-20T02:27:03;4;4;
73517;PMS5003;61766;60.318;25.044;2023-05-20T02:29:28;5;4;
73517;PMS5003;61766;60.318;25.044;2023-05-20T02:31:53;4;4;
73517;PMS5003;61766;60.318;25.044;2023-05-20T02:34:19;5;5;
73517;PMS5003;61766;60.318;25.044;2023-05-20T02:36:44;3;3;
73517;PMS5003;61766;60.318;25.044;2023-05-20T02:39:09;5;4;
73517;PMS5003;61766;60.318;25.044;2023-05-20T02:41:34;5;5;
73517;PMS5003;61766;60.318;25.044;2023-05-20T02:43:59;4;4;
73517;PMS5003;61766;60.318;25.044;2023-05-20T02:46:24;2;2;
73517;PMS5003;61766;60.318;25.044;2023-05-20T02:48:49;5;5;
73517;PMS5003;61766;60.318;25.044;2023-05-20T02:51:14;6;5;
73517;PMS5003;61766;60.318;25.044;2023-05-20T02:53:39;4;4;
73517;PMS5003;61766;60.318;25.044;2023-05-20T02:56:05;4;4;
73517;PMS5003;61766;60.318;25.044;2023-05-20T02:58:30;4;4;
73517;PMS5003;61766;60.318;25.044;2023-05-20T03:00:55;6;6;
73517;PMS5003;61766;60.318;25.044;2023-05-20T03:03:20;5;5;
73517;PMS5003;61766;60.318;25.044;2023-05-20T03:05:45;4;4;
73517;PMS5003;61766;60.318;25.044;2023-05-20T03:08:10;5;5;
73517;PMS5003;61766;60.318;25.044;2023-05-20T03:10:35;5;5;
73517;PMS5003;61766;60.318;25.044;2023-05-20T03:13:00;3;3;
73517;PMS5003;61766;60.318;25.044;2023-05-20T03:15:25;6;6;
73517;PMS5003;61766;60.318;25.044;2023-05-20T03:17:50;6;6;
73517;PMS5003;61766;60.318;25.044;2023-05-20T03:20:16;5;5;
73517;PMS5003;61766;60.318;25.044;2023-05-20T03:22:41;4;4;
73517;PMS5003;61766;60.318;25.044;2023-05-20T03:25:06;6;5;
73517;PMS5003;61766;60.318;25.044;2023-05-20T03:27:31;4;4;
73517;PMS5003;61766;60.318;25.044;2023-05-20T03:29:57;5;4;
73517;PMS5003;61766;60.318;25.044;2023-05-20T03:32:22;5;5;
73517;PMS5003;61766;60.318;25.044;2023-05-20T03:34:47;5;5;
73517;PMS5003;61766;60.318;25.044;2023-05-20T03:37:14;3;3;
73517;PMS5003;61766;60.318;25.044;2023-05-20T03:39:37;6;5;
73517;PMS5003;61766;60.318;25.044;2023-05-20T03:42:03;5;5;
73517;PMS5003;61766;60.318;25.044;2023-05-20T03:44:28;4;4;
73517;PMS5003;61766;60.318;25.044;2023-05-20T03:46:53;4;4;
73517;PMS5003;61766;60.318;25.044;2023-05-20T03:49:18;6;6;
73517;PMS5003;61766;60.318;25.044;2023-05-20T03:51:43;6;5;
73517;PMS5003;61766;60.318;25.044;2023-05-20T03:54:08;3;3;
73517;PMS5003;61766;60.318;25.044;2023-05-20T03:56:33;3;3;
73517;PMS5003;61766;60.318;25.044;2023-05-20T03:58:58;3;3;
73517;PMS5003;61766;60.318;25.044;2023-05-20T04:01:23;3;3;
73517;PMS5003;61766;60.318;25.044;2023-05-20T04:03:48;3;3;
73517;PMS5003;61766;60.318;25.044;2023-05-20T04:06:13;3;3;
73517;PMS5003;61766;60.318;25.044;2023-05-20T04:08:38;2;2;
73517;PMS5003;61766;60.318;25.044;2023-05-20T04:11:03;2;2;
73517;PMS5003;61766;60.318;25.044;2023-05-20T04:13:29;4;3;
73517;PMS5003;61766;60.318;25.044;2023-05-20T04:15:53;2;2;
73517;PMS5003;61766;60.318;25.044;2023-05-20T04:18:19;2;1;
73517;PMS5003;61766;60.318;25.044;2023-05-20T04:20:44;1;1;
73517;PMS5003;61766;60.318;25.044;2023-05-20T04:23:09;2;2;
73517;PMS5003;61766;60.318;25.044;2023-05-20T04:25:34;3;3;
73517;PMS5003;61766;60.318;25.044;2023-05-20T04:27:59;2;2;
73517;PMS5003;61766;60.318;25.044;2023-05-20T04:30:24;2;2;
73517;PMS5003;61766;60.318;25.044;2023-05-20T04:32:49;2;2;
73517;PMS5003;61766;60.318;25.044;2023-05-20T04:35:14;2;2;
73517;PMS5003;61766;60.318;25.044;2023-05-20T04:37:39;1;0;
73517;PMS5003;61766;60.318;25.044;2023-05-20T04:40:05;2;2;
73517;PMS5003;61766;60.318;25.044;2023-05-20T04:42:31;1;1;
73517;PMS5003;61766;60.318;25.044;2023-05-20T04:44:56;4;4;
73517;PMS5003;61766;60.318;25.044;2023-05-20T04:47:22;3;3;
73517;PMS5003;61766;60.318;25.044;2023-05-20T04:49:48;4;3;
73517;PMS5003;61766;60.318;25.044;2023-05-20T04:52:14;2;2;
73517;PMS5003;61766;60.318;25.044;2023-05-20T04:54:40;2;2;
73517;PMS5003;61766;60.318;25.044;2023-05-20T04:57:06;3;2;
73517;PMS5003;61766;60.318;25.044;2023-05-20T04:59:31;4;4;
73517;PMS5003;61766;60.318;25.044;2023-05-20T05:01:57;3;3;
73517;PMS5003;61766;60.318;25.044;2023-05-20T05:04:23;2;2;
73517;PMS5003;61766;60.318;25.044;2023-05-20T05:06:49;1;1;
73517;PMS5003;61766;60.318;25.044;2023-05-20T05:09:15;3;2;
73517;PMS5003;61766;60.318;25.044;2023-05-20T05:11:40;2;2;
73517;PMS5003;61766;60.318;25.044;2023-05-20T05:14:06;2;2;
73517;PMS5003;61766;60.318;25.044;2023-05-20T05:16:32;2;2;
73517;PMS5003;61766;60.318;25.044;2023-05-20T05:18:58;3;3;
73517;PMS5003;61766;60.318;25.044;2023-05-20T05:21:24;1;1;
73517;PMS5003;61766;60.318;25.044;2023-05-20T05:23:50;2;2;
73517;PMS5003;61766;60.318;25.044;2023-05-20T05:26:16;2;2;
73517;PMS5003;61766;60.318;25.044;2023-05-20T05:28:41;2;2;
73517;PMS5003;61766;60.318;25.044;2023-05-20T05:31:07;2;2;
73517;PMS5003;61766;60.318;25.044;2023-05-20T05:33:33;1;1;
73517;PMS5003;61766;60.318;25.044;2023-05-20T05:35:59;1;1;
73517;PMS5003;61766;60.318;25.044;2023-05-20T05:38:24;1;1;
73517;PMS5003;61766;60.318;25.044;2023-05-20T05:40:50;2;2;
73517;PMS5003;61766;60.318;25.044;2023-05-20T05:43:16;0;0;
73517;PMS5003;61766;60.318;25.044;2023-05-20T05:45:42;2;2;
73517;PMS5003;61766;60.318;25.044;2023-05-20T05:48:07;1;1;
73517;PMS5003;61766;60.318;25.044;2023-05-20T05:50:33;2;2;
73517;PMS5003;61766;60.318;25.044;2023-05-20T05:52:59;3;2;
73517;PMS5003;61766;60.318;25.044;2023-05-20T05:55:25;2;2;
73517;PMS5003;61766;60.318;25.044;2023-05-20T05:57:51;2;2;
73517;PMS5003;61766;60.318;25.044;2023-05-20T06:00:16;1;1;
73517;PMS5003;61766;60.318;25.044;2023-05-20T06:02:42;2;2;
73517;PMS5003;61766;60.318;25.044;2023-05-20T06:05:08;3;2;
73517;PMS5003;61766;60.318;25.044;2023-05-20T06:07:33;2;2;
73517;PMS5003;61766;60.318;25.044;2023-05-20T06:09:59;2;2;
73517;PMS5003;61766;60.318;25.044;2023-05-20T06:12:25;1;1;
73517;PMS5003;61766;60.318;25.044;2023-05-20T06:14:51;2;2;
73517;PMS5003;61766;60.318;25.044;2023-05-20T06:17:16;2;2;
73517;PMS5003;61766;60.318;25.044;2023-05-20T06:19:42;2;2;
73517;PMS5003;61766;60.318;25.044;2023-05-20T06:22:08;2;1;
73517;PMS5003;61766;60.318;25.044;2023-05-20T06:24:34;2;2;
73517;PMS5003;61766;60.318;25.044;2023-05-20T06:26:59;1;1;
73517;PMS5003;61766;60.318;25.044;2023-05-20T06:29:25;1;1;
73517;PMS5003;61766;60.318;25.044;2023-05-20T06:31:51;1;1;
73517;PMS5003;61766;60.318;25.044;2023-05-20T06:34:17;0;0;
73517;PMS5003;61766;60.318;25.044;2023-05-20T06:36:42;1;1;
73517;PMS5003;61766;60.318;25.044;2023-05-20T06:39:08;2;2;
73517;PMS5003;61766;60.318;25.044;2023-05-20T06:41:34;2;2;
73517;PMS5003;61766;60.318;25.044;2023-05-20T06:44:00;2;2;
73517;PMS5003;61766;60.318;25.044;2023-05-20T06:46:25;1;1;
73517;PMS5003;61766;60.318;25.044;2023-05-20T06:48:51;1;1;
73517;PMS5003;61766;60.318;25.044;2023-05-20T06:51:17;2;2;
73517;PMS5003;61766;60.318;25.044;2023-05-20T06:53:42;2;2;
73517;PMS5003;61766;60.318;25.044;2023-05-20T06:56:08;3;3;
73517;PMS5003;61766;60.318;25.044;2023-05-20T06:58:34;1;1;
73517;PMS5003;61766;60.318;25.044;2023-05-20T07:00:59;1;1;
73517;PMS5003;61766;60.318;25.044;2023-05-20T07:03:25;2;2;
73517;PMS5003;61766;60.318;25.044;2023-05-20T07:05:51;2;2;
73517;PMS5003;61766;60.318;25.044;2023-05-20T07:08:17;1;1;
73517;PMS5003;61766;60.318;25.044;2023-05-20T07:10:42;1;1;
73517;PMS5003;61766;60.318;25.044;2023-05-20T07:13:08;1;1;
73517;PMS5003;61766;60.318;25.044;2023-05-20T07:15:34;1;1;
73517;PMS5003;61766;60.318;25.044;2023-05-20T07:17:59;2;2;
73517;PMS5003;61766;60.318;25.044;2023-05-20T07:20:25;0;0;
73517;PMS5003;61766;60.318;25.044;2023-05-20T07:22:51;1;1;
73517;PMS5003;61766;60.318;25.044;2023-05-20T07:25:17;3;3;
73517;PMS5003;61766;60.318;25.044;2023-05-20T07:27:42;2;2;
73517;PMS5003;61766;60.318;25.044;2023-05-20T07:30:08;2;2;
73517;PMS5003;61766;60.318;25.044;2023-05-20T07:32:34;1;1;
73517;PMS5003;61766;60.318;25.044;2023-05-20T07:34:59;1;1;
73517;PMS5003;61766;60.318;25.044;2023-05-20T07:37:25;3;2;
73517;PMS5003;61766;60.318;25.044;2023-05-20T07:39:51;1;1;
73517;PMS5003;61766;60.318;25.044;2023-05-20T07:42:16;1;1;
73517;PMS5003;61766;60.318;25.044;2023-05-20T07:44:42;1;1;
73517;PMS5003;61766;60.318;25.044;2023-05-20T07:47:08;1;1;
73517;PMS5003;61766;60.318;25.044;2023-05-20T07:49:33;1;1;
73517;PMS5003;61766;60.318;25.044;2023-05-20T07:51:59;1;1;
73517;PMS5003;61766;60.318;25.044;2023-05-20T07:54:25;1;1;
73517;PMS5003;61766;60.318;25.044;2023-05-20T07:56:51;2;2;
73517;PMS5003;61766;60.318;25.044;2023-05-20T07:59:16;2;1;
73517;PMS5003;61766;60.318;25.044;2023-05-20T08:01:42;4;3;
73517;PMS5003;61766;60.318;25.044;2023-05-20T08:04:08;0;0;
73517;PMS5003;61766;60.318;25.044;2023-05-20T08:06:33;1;1;
73517;PMS5003;61766;60.318;25.044;2023-05-20T08:08:59;2;2;
73517;PMS5003;61766;60.318;25.044;2023-05-20T08:11:25;1;1;
73517;PMS5003;61766;60.318;25.044;2023-05-20T08:13:50;2;2;
73517;PMS5003;61766;60.318;25.044;2023-05-20T08:16:16;1;1;
73517;PMS5003;61766;60.318;25.044;2023-05-20T08:18:42;2;2;
73517;PMS5003;61766;60.318;25.044;2023-05-20T08:21:08;2;2;
73517;PMS5003;61766;60.318;25.044;2023-05-20T08:23:33;1;1;
73517;PMS5003;61766;60.318;25.044;2023-05-20T08:25:59;2;2;
73517;PMS5003;61766;60.318;25.044;2023-05-20T08:28:25;1;1;
73517;PMS5003;61766;60.318;25.044;2023-05-20T08:30:50;1;1;
73517;PMS5003;61766;60.318;25.044;2023-05-20T08:33:16;2;2;
73517;PMS5003;61766;60.318;25.044;2023-05-20T08:35:41;1;1;
73517;PMS5003;61766;60.318;25.044;2023-05-20T08:38:07;0;0;
73517;PMS5003;61766;60.318;25.044;2023-05-20T08:40:33;0;0;
73517;PMS5003;61766;60.318;25.044;2023-05-20T08:42:59;2;2;
73517;PMS5003;61766;60.318;25.044;2023-05-20T08:45:24;2;2;
73517;PMS5003;61766;60.318;25.044;2023-05-20T08:47:50;2;2;
73517;PMS5003;61766;60.318;25.044;2023-05-20T08:50:16;1;1;
73517;PMS5003;61766;60.318;25.044;2023-05-20T08:52:42;2;2;
73517;PMS5003;61766;60.318;25.044;2023-05-20T08:55:07;3;2;
73517;PMS5003;61766;60.318;25.044;2023-05-20T08:57:32;1;1;
73517;PMS5003;61766;60.318;25.044;2023-05-20T08:59:58;2;2;
73517;PMS5003;61766;60.318;25.044;2023-05-20T09:02:24;3;3;
73517;PMS5003;61766;60.318;25.044;2023-05-20T09:04:50;2;1;
73517;PMS5003;61766;60.318;25.044;2023-05-20T09:09:41;2;2;
73517;PMS5003;61766;60.318;25.044;2023-05-20T09:12:06;2;2;
73517;PMS5003;61766;60.318;25.044;2023-05-20T09:14:32;1;1;
73517;PMS5003;61766;60.318;25.044;2023-05-20T09:16:58;3;2;
73517;PMS5003;61766;60.318;25.044;2023-05-20T09:19:24;2;2;
73517;PMS5003;61766;60.318;25.044;2023-05-20T09:21:50;2;2;
73517;PMS5003;61766;60.318;25.044;2023-05-20T09:24:15;3;3;
73517;PMS5003;61766;60.318;25.044;2023-05-20T09:26:40;2;1;
73517;PMS5003;61766;60.318;25.044;2023-05-20T09:29:06;2;2;
73517;PMS5003;61766;60.318;25.044;2023-05-20T09:31:32;2;2;
73517;PMS5003;61766;60.318;25.044;2023-05-20T09:33:57;2;2;
73517;PMS5003;61766;60.318;25.044;2023-05-20T09:36:23;2;2;
73517;PMS5003;61766;60.318;25.044;2023-05-20T09:38:50;2;2;
73517;PMS5003;61766;60.318;25.044;2023-05-20T09:41:15;3;2;
73517;PMS5003;61766;60.318;25.044;2023-05-20T09:43:40;1;1;
73517;PMS5003;61766;60.318;25.044;2023-05-20T09:46:06;1;1;
73517;PMS5003;61766;60.318;25.044;2023-05-20T09:48:31;3;3;
73517;PMS5003;61766;60.318;25.044;2023-05-20T09:50:58;1;1;
73517;PMS5003;61766;60.318;25.044;2023-05-20T09:53:24;2;2;
73517;PMS5003;61766;60.318;25.044;2023-05-20T09:55:49;3;2;
73517;PMS5003;61766;60.318;25.044;2023-05-20T09:58:14;2;2;
73517;PMS5003;61766;60.318;25.044;2023-05-20T10:00:40;2;2;
73517;PMS5003;61766;60.318;25.044;2023-05-20T10:03:05;2;2;
73517;PMS5003;61766;60.318;25.044;2023-05-20T10:05:31;1;1;
73517;PMS5003;61766;60.318;25.044;2023-05-20T10:08:06;2;2;
73517;PMS5003;61766;60.318;25.044;2023-05-20T10:10:26;2;2;
73517;PMS5003;61766;60.318;25.044;2023-05-20T10:12:50;2;2;
73517;PMS5003;61766;60.318;25.044;2023-05-20T10:15:16;3;3;
73517;PMS5003;61766;60.318;25.044;2023-05-20T10:17:41;1;1;
73517;PMS5003;61766;60.318;25.044;2023-05-20T10:20:05;1;1;
73517;PMS5003;61766;60.318;25.044;2023-05-20T10:22:31;3;3;
73517;PMS5003;61766;60.318;25.044;2023-05-20T10:24:57;2;2;
73517;PMS5003;61766;60.318;25.044;2023-05-20T10:27:22;2;2;
73517;PMS5003;61766;60.318;25.044;2023-05-20T10:29:49;2;2;
73517;PMS5003;61766;60.318;25.044;2023-05-20T10:34:45;3;3;
73517;PMS5003;61766;60.318;25.044;2023-05-20T10:37:05;2;2;
73517;PMS5003;61766;60.318;25.044;2023-05-20T10:39:31;2;2;
73517;PMS5003;61766;60.318;25.044;2023-05-20T10:44:22;3;3;
73517;PMS5003;61766;60.318;25.044;2023-05-20T10:46:47;3;3;
73517;PMS5003;61766;60.318;25.044;2023-05-20T10:49:17;4;3;
73517;PMS5003;61766;60.318;25.044;2023-05-20T10:51:39;2;2;
73517;PMS5003;61766;60.318;25.044;2023-05-20T10:54:08;2;2;
73517;PMS5003;61766;60.318;25.044;2023-05-20T10:56:30;2;2;
73517;PMS5003;61766;60.318;25.044;2023-05-20T10:58:56;3;3;
73517;PMS5003;61766;60.318;25.044;2023-05-20T11:01:23;2;2;
73517;PMS5003;61766;60.318;25.044;2023-05-20T11:03:47;3;3;
73517;PMS5003;61766;60.318;25.044;2023-05-20T11:06:13;2;2;
73517;PMS5003;61766;60.318;25.044;2023-05-20T11:08:39;3;3;
73517;PMS5003;61766;60.318;25.044;2023-05-20T11:11:06;2;2;
73517;PMS5003;61766;60.318;25.044;2023-05-20T11:13:30;2;2;
73517;PMS5003;61766;60.318;25.044;2023-05-20T11:15:56;3;3;
73517;PMS5003;61766;60.318;25.044;2023-05-20T11:18:21;3;3;
73517;PMS5003;61766;60.318;25.044;2023-05-20T11:20:47;2;2;
73517;PMS5003;61766;60.318;25.044;2023-05-20T11:23:13;3;2;
73517;PMS5003;61766;60.318;25.044;2023-05-20T11:25:38;2;2;
73517;PMS5003;61766;60.318;25.044;2023-05-20T11:28:07;2;2;
73517;PMS5003;61766;60.318;25.044;2023-05-20T11:30:30;1;1;
73517;PMS5003;61766;60.318;25.044;2023-05-20T11:32:56;2;1;
73517;PMS5003;61766;60.318;25.044;2023-05-20T11:35:21;2;2;
73517;PMS5003;61766;60.318;25.044;2023-05-20T11:40:13;2;2;
73517;PMS5003;61766;60.318;25.044;2023-05-20T11:42:38;2;2;
73517;PMS5003;61766;60.318;25.044;2023-05-20T11:45:04;2;2;
73517;PMS5003;61766;60.318;25.044;2023-05-20T11:47:29;2;2;
73517;PMS5003;61766;60.318;25.044;2023-05-20T11:49:55;2;2;
73517;PMS5003;61766;60.318;25.044;2023-05-20T11:52:21;2;2;
73517;PMS5003;61766;60.318;25.044;2023-05-20T11:54:49;3;2;
73517;PMS5003;61766;60.318;25.044;2023-05-20T11:57:12;1;1;
73517;PMS5003;61766;60.318;25.044;2023-05-20T11:59:38;3;3;
73517;PMS5003;61766;60.318;25.044;2023-05-20T12:02:03;2;2;
73517;PMS5003;61766;60.318;25.044;2023-05-20T12:04:29;2;1;
73517;PMS5003;61766;60.318;25.044;2023-05-20T12:06:55;2;2;
73517;PMS5003;61766;60.318;25.044;2023-05-20T12:09:20;2;2;
73517;PMS5003;61766;60.318;25.044;2023-05-20T12:11:46;0;0;
73517;PMS5003;61766;60.318;25.044;2023-05-20T12:14:12;1;1;
73517;PMS5003;61766;60.318;25.044;2023-05-20T12:16:37;1;1;
73517;PMS5003;61766;60.318;25.044;2023-05-20T12:19:03;3;3;
73517;PMS5003;61766;60.318;25.044;2023-05-20T12:21:29;2;2;
73517;PMS5003;61766;60.318;25.044;2023-05-20T12:23:54;3;3;
73517;PMS5003;61766;60.318;25.044;2023-05-20T12:26:20;2;2;
73517;PMS5003;61766;60.318;25.044;2023-05-20T12:28:46;2;2;
73517;PMS5003;61766;60.318;25.044;2023-05-20T12:31:11;3;3;
73517;PMS5003;61766;60.318;25.044;2023-05-20T12:33:37;3;3;
73517;PMS5003;61766;60.318;25.044;2023-05-20T12:36:04;0;0;
73517;PMS5003;61766;60.318;25.044;2023-05-20T12:38:28;2;2;
73517;PMS5003;61766;60.318;25.044;2023-05-20T12:40:54;3;2;
73517;PMS5003;61766;60.318;25.044;2023-05-20T12:43:20;2;2;
73517;PMS5003;61766;60.318;25.044;2023-05-20T12:45:46;2;2;
73517;PMS5003;61766;60.318;25.044;2023-05-20T12:48:11;2;2;
73517;PMS5003;61766;60.318;25.044;2023-05-20T12:50:37;3;3;
73517;PMS5003;61766;60.318;25.044;2023-05-20T12:53:03;4;3;
73517;PMS5003;61766;60.318;25.044;2023-05-20T12:55:28;4;4;
73517;PMS5003;61766;60.318;25.044;2023-05-20T12:57:54;3;3;
73517;PMS5003;61766;60.318;25.044;2023-05-20T13:00:20;2;1;
73517;PMS5003;61766;60.318;25.044;2023-05-20T13:02:45;1;1;
73517;PMS5003;61766;60.318;25.044;2023-05-20T13:05:11;3;3;
73517;PMS5003;61766;60.318;25.044;2023-05-20T13:07:37;0;0;
73517;PMS5003;61766;60.318;25.044;2023-05-20T13:10:03;2;2;
73517;PMS5003;61766;60.318;25.044;2023-05-20T13:12:28;2;2;
73517;PMS5003;61766;60.318;25.044;2023-05-20T13:14:54;2;2;
73517;PMS5003;61766;60.318;25.044;2023-05-20T13:17:19;3;2;
73517;PMS5003;61766;60.318;25.044;2023-05-20T13:19:45;1;1;
73517;PMS5003;61766;60.318;25.044;2023-05-20T13:22:11;1;1;
73517;PMS5003;61766;60.318;25.044;2023-05-20T13:24:37;3;3;
73517;PMS5003;61766;60.318;25.044;2023-05-20T13:27:02;2;2;
73517;PMS5003;61766;60.318;25.044;2023-05-20T13:29:28;1;1;
73517;PMS5003;61766;60.318;25.044;2023-05-20T13:31:54;2;2;
73517;PMS5003;61766;60.318;25.044;2023-05-20T13:34:19;2;2;
73517;PMS5003;61766;60.318;25.044;2023-05-20T13:36:45;2;2;
73517;PMS5003;61766;60.318;25.044;2023-05-20T13:39:11;2;2;
73517;PMS5003;61766;60.318;25.044;2023-05-20T13:41:37;1;1;
73517;PMS5003;61766;60.318;25.044;2023-05-20T13:44:02;1;1;
73517;PMS5003;61766;60.318;25.044;2023-05-20T13:46:28;3;2;
73517;PMS5003;61766;60.318;25.044;2023-05-20T13:48:54;3;3;
73517;PMS5003;61766;60.318;25.044;2023-05-20T13:51:19;2;2;
73517;PMS5003;61766;60.318;25.044;2023-05-20T13:53:45;2;2;
73517;PMS5003;61766;60.318;25.044;2023-05-20T13:56:11;2;2;
73517;PMS5003;61766;60.318;25.044;2023-05-20T13:58:36;3;3;
73517;PMS5003;61766;60.318;25.044;2023-05-20T14:01:02;1;1;
73517;PMS5003;61766;60.318;25.044;2023-05-20T14:03:28;2;2;
73517;PMS5003;61766;60.318;25.044;2023-05-20T14:05:54;2;2;
73517;PMS5003;61766;60.318;25.044;2023-05-20T14:08:19;0;0;
73517;PMS5003;61766;60.318;25.044;2023-05-20T14:10:45;3;3;
73517;PMS5003;61766;60.318;25.044;2023-05-20T14:13:11;1;1;
73517;PMS5003;61766;60.318;25.044;2023-05-20T14:15:36;2;2;
73517;PMS5003;61766;60.318;25.044;2023-05-20T14:18:02;3;2;
73517;PMS5003;61766;60.318;25.044;2023-05-20T14:20:28;3;2;
73517;PMS5003;61766;60.318;25.044;2023-05-20T14:22:54;3;2;
73517;PMS5003;61766;60.318;25.044;2023-05-20T14:25:19;2;2;
73517;PMS5003;61766;60.318;25.044;2023-05-20T14:27:45;2;2;
73517;PMS5003;61766;60.318;25.044;2023-05-20T14:30:11;2;2;
73517;PMS5003;61766;60.318;25.044;2023-05-20T14:32:36;2;2;
73517;PMS5003;61766;60.318;25.044;2023-05-20T14:35:02;3;3;
73517;PMS5003;61766;60.318;25.044;2023-05-20T14:37:28;2;2;
73517;PMS5003;61766;60.318;25.044;2023-05-20T14:39:54;3;3;
73517;PMS5003;61766;60.318;25.044;2023-05-20T14:42:19;3;3;
73517;PMS5003;61766;60.318;25.044;2023-05-20T14:44:45;2;2;
73517;PMS5003;61766;60.318;25.044;2023-05-20T14:47:11;2;2;
73517;PMS5003;61766;60.318;25.044;2023-05-20T14:49:36;2;2;
73517;PMS5003;61766;60.318;25.044;2023-05-20T14:52:02;3;3;
73517;PMS5003;61766;60.318;25.044;2023-05-20T14:54:28;3;3;
73517;PMS5003;61766;60.318;25.044;2023-05-20T14:56:54;3;3;
73517;PMS5003;61766;60.318;25.044;2023-05-20T14:59:19;2;2;
73517;PMS5003;61766;60.318;25.044;2023-05-20T15:01:45;3;3;
73517;PMS5003;61766;60.318;25.044;2023-05-20T15:04:11;4;4;
73517;PMS5003;61766;60.318;25.044;2023-05-20T15:06:37;2;2;
73517;PMS5003;61766;60.318;25.044;2023-05-20T15:09:03;2;2;
73517;PMS5003;61766;60.318;25.044;2023-05-20T15:11:28;1;1;
73517;PMS5003;61766;60.318;25.044;2023-05-20T15:13:54;2;2;
73517;PMS5003;61766;60.318;25.044;2023-05-20T15:16:19;1;1;
73517;PMS5003;61766;60.318;25.044;2023-05-20T15:18:45;1;1;
73517;PMS5003;61766;60.318;25.044;2023-05-20T15:21:11;2;1;
73517;PMS5003;61766;60.318;25.044;2023-05-20T15:23:37;3;2;
73517;PMS5003;61766;60.318;25.044;2023-05-20T15:26:02;1;0;
73517;PMS5003;61766;60.318;25.044;2023-05-20T15:28:28;3;3;
73517;PMS5003;61766;60.318;25.044;2023-05-20T15:30:54;1;1;
73517;PMS5003;61766;60.318;25.044;2023-05-20T15:33:20;2;2;
73517;PMS5003;61766;60.318;25.044;2023-05-20T15:35:45;2;2;
73517;PMS5003;61766;60.318;25.044;2023-05-20T15:38:11;2;1;
73517;PMS5003;61766;60.318;25.044;2023-05-20T15:40:37;3;3;
73517;PMS5003;61766;60.318;25.044;2023-05-20T15:43:03;2;2;
73517;PMS5003;61766;60.318;25.044;2023-05-20T15:45:29;3;3;
73517;PMS5003;61766;60.318;25.044;2023-05-20T15:47:54;1;1;
73517;PMS5003;61766;60.318;25.044;2023-05-20T15:50:20;3;3;
73517;PMS5003;61766;60.318;25.044;2023-05-20T15:52:46;1;1;
73517;PMS5003;61766;60.318;25.044;2023-05-20T15:55:11;3;2;
73517;PMS5003;61766;60.318;25.044;2023-05-20T15:57:37;3;2;
73517;PMS5003;61766;60.318;25.044;2023-05-20T16:00:03;2;2;
73517;PMS5003;61766;60.318;25.044;2023-05-20T16:02:29;3;3;
73517;PMS5003;61766;60.318;25.044;2023-05-20T16:04:54;4;3;
73517;PMS5003;61766;60.318;25.044;2023-05-20T16:07:20;2;2;
73517;PMS5003;61766;60.318;25.044;2023-05-20T16:09:46;3;3;
73517;PMS5003;61766;60.318;25.044;2023-05-20T16:12:12;2;2;
73517;PMS5003;61766;60.318;25.044;2023-05-20T16:14:37;3;3;
73517;PMS5003;61766;60.318;25.044;2023-05-20T16:17:03;4;3;
73517;PMS5003;61766;60.318;25.044;2023-05-20T16:19:29;3;3;
73517;PMS5003;61766;60.318;25.044;2023-05-20T16:21:55;2;2;
73517;PMS5003;61766;60.318;25.044;2023-05-20T16:24:20;3;3;
73517;PMS5003;61766;60.318;25.044;2023-05-20T16:26:46;4;4;
73517;PMS5003;61766;60.318;25.044;2023-05-20T16:29:12;4;4;
73517;PMS5003;61766;60.318;25.044;2023-05-20T16:31:38;4;3;